sensor_id;sensor_type;location;lat;lon;timestamp;P1;durP1;ratioP1;P2;durP2;ratioP2
76761;SDS011;65705;51.032;13.790;2022-12-18T00:01:15;45.60;;;18.30;;
76761;SDS011;65705;51.032;13.790;2022-12-18T00:03:45;48.35;;;17.02;;
76761;SDS011;65705;51.032;13.790;2022-12-18T00:06:13;47.25;;;15.20;;
76761;SDS011;65705;51.032;13.790;2022-12-18T00:08:40;54.38;;;18.38;;
76761;SDS011;65705;51.032;13.790;2022-12-18T00:11:07;50.67;;;16.60;;
76761;SDS011;65705;51.032;13.790;2022-12-18T00:13:36;40.75;;;17.75;;
76761;SDS011;65705;51.032;13.790;2022-12-18T00:16:09;41.72;;;15.95;;
76761;SDS011;65705;51.032;13.790;2022-12-18T00:18:39;49.97;;;17.45;;
76761;SDS011;65705;51.032;13.790;2022-12-18T00:21:05;37.42;;;16.35;;
76761;SDS011;65705;51.032;13.790;2022-12-18T00:23:33;37.75;;;15.25;;
76761;SDS011;65705;51.032;13.790;2022-12-18T00:26:01;38.88;;;16.27;;
76761;SDS011;65705;51.032;13.790;2022-12-18T00:28:29;36.25;;;15.05;;
76761;SDS011;65705;51.032;13.790;2022-12-18T00:31:00;39.58;;;15.13;;
76761;SDS011;65705;51.032;13.790;2022-12-18T00:33:35;42.45;;;14.98;;
76761;SDS011;65705;51.032;13.790;2022-12-18T00:36:02;38.72;;;13.38;;
76761;SDS011;65705;51.032;13.790;2022-12-18T00:38:32;41.55;;;15.00;;
76761;SDS011;65705;51.032;13.790;2022-12-18T00:40:59;32.33;;;14.30;;
76761;SDS011;65705;51.032;13.790;2022-12-18T00:43:25;44.17;;;16.30;;
76761;SDS011;65705;51.032;13.790;2022-12-18T00:45:52;37.58;;;14.68;;
76761;SDS011;65705;51.032;13.790;2022-12-18T00:48:18;36.17;;;14.75;;
76761;SDS011;65705;51.032;13.790;2022-12-18T00:50:43;37.47;;;13.73;;
76761;SDS011;65705;51.032;13.790;2022-12-18T00:53:09;42.30;;;14.98;;
76761;SDS011;65705;51.032;13.790;2022-12-18T00:55:37;37.15;;;15.70;;
76761;SDS011;65705;51.032;13.790;2022-12-18T00:58:04;38.35;;;15.07;;
76761;SDS011;65705;51.032;13.790;2022-12-18T01:00:30;42.22;;;16.50;;
76761;SDS011;65705;51.032;13.790;2022-12-18T01:02:55;41.50;;;15.20;;
76761;SDS011;65705;51.032;13.790;2022-12-18T01:05:21;44.45;;;14.73;;
76761;SDS011;65705;51.032;13.790;2022-12-18T01:07:47;42.33;;;15.57;;
76761;SDS011;65705;51.032;13.790;2022-12-18T01:10:13;39.15;;;14.27;;
76761;SDS011;65705;51.032;13.790;2022-12-18T01:12:39;37.33;;;13.32;;
76761;SDS011;65705;51.032;13.790;2022-12-18T01:15:06;36.25;;;15.10;;
76761;SDS011;65705;51.032;13.790;2022-12-18T01:17:32;35.92;;;12.45;;
76761;SDS011;65705;51.032;13.790;2022-12-18T01:19:59;31.30;;;11.20;;
76761;SDS011;65705;51.032;13.790;2022-12-18T01:22:25;34.22;;;12.75;;
76761;SDS011;65705;51.032;13.790;2022-12-18T01:24:51;25.52;;;12.25;;
76761;SDS011;65705;51.032;13.790;2022-12-18T01:27:17;37.53;;;14.30;;
76761;SDS011;65705;51.032;13.790;2022-12-18T01:29:42;29.63;;;10.93;;
76761;SDS011;65705;51.032;13.790;2022-12-18T01:32:08;29.45;;;9.80;;
76761;SDS011;65705;51.032;13.790;2022-12-18T01:34:37;33.05;;;11.70;;
76761;SDS011;65705;51.032;13.790;2022-12-18T01:37:04;26.17;;;10.38;;
76761;SDS011;65705;51.032;13.790;2022-12-18T01:39:30;27.40;;;10.73;;
76761;SDS011;65705;51.032;13.790;2022-12-18T01:42:00;27.30;;;10.38;;
76761;SDS011;65705;51.032;13.790;2022-12-18T01:47:28;27.35;;;9.90;;
76761;SDS011;65705;51.032;13.790;2022-12-18T01:50:12;27.40;;;11.18;;
76761;SDS011;65705;51.032;13.790;2022-12-18T01:52:48;26.50;;;10.00;;
76761;SDS011;65705;51.032;13.790;2022-12-18T01:55:18;29.63;;;11.68;;
76761;SDS011;65705;51.032;13.790;2022-12-18T01:57:45;32.28;;;11.52;;
76761;SDS011;65705;51.032;13.790;2022-12-18T02:00:14;26.55;;;10.68;;
76761;SDS011;65705;51.032;13.790;2022-12-18T02:02:43;28.50;;;11.75;;
76761;SDS011;65705;51.032;13.790;2022-12-18T02:05:12;28.00;;;10.93;;
76761;SDS011;65705;51.032;13.790;2022-12-18T02:07:52;28.27;;;10.93;;
76761;SDS011;65705;51.032;13.790;2022-12-18T02:10:29;27.17;;;9.73;;
76761;SDS011;65705;51.032;13.790;2022-12-18T02:15:51;25.33;;;10.93;;
76761;SDS011;65705;51.032;13.790;2022-12-18T02:18:23;27.10;;;10.18;;
76761;SDS011;65705;51.032;13.790;2022-12-18T02:21:00;21.98;;;9.80;;
76761;SDS011;65705;51.032;13.790;2022-12-18T02:23:48;23.67;;;8.98;;
76761;SDS011;65705;51.032;13.790;2022-12-18T02:26:40;27.65;;;10.43;;
76761;SDS011;65705;51.032;13.790;2022-12-18T02:29:17;29.55;;;9.75;;
76761;SDS011;65705;51.032;13.790;2022-12-18T02:31:53;26.40;;;9.70;;
76761;SDS011;65705;51.032;13.790;2022-12-18T02:34:22;26.42;;;9.77;;
76761;SDS011;65705;51.032;13.790;2022-12-18T02:36:53;26.92;;;9.80;;
76761;SDS011;65705;51.032;13.790;2022-12-18T02:39:20;29.80;;;9.40;;
76761;SDS011;65705;51.032;13.790;2022-12-18T02:41:57;21.17;;;8.13;;
76761;SDS011;65705;51.032;13.790;2022-12-18T02:44:24;20.02;;;8.27;;
76761;SDS011;65705;51.032;13.790;2022-12-18T02:46:51;24.58;;;7.95;;
76761;SDS011;65705;51.032;13.790;2022-12-18T02:52:08;22.70;;;7.60;;
76761;SDS011;65705;51.032;13.790;2022-12-18T02:54:47;20.02;;;7.28;;
76761;SDS011;65705;51.032;13.790;2022-12-18T03:00:12;22.27;;;6.13;;
76761;SDS011;65705;51.032;13.790;2022-12-18T03:02:45;20.85;;;7.15;;
76761;SDS011;65705;51.032;13.790;2022-12-18T03:05:20;19.73;;;7.38;;
76761;SDS011;65705;51.032;13.790;2022-12-18T03:07:51;17.85;;;7.40;;
76761;SDS011;65705;51.032;13.790;2022-12-18T03:10:27;21.48;;;8.45;;
76761;SDS011;65705;51.032;13.790;2022-12-18T03:13:06;17.92;;;7.50;;
76761;SDS011;65705;51.032;13.790;2022-12-18T03:15:38;23.20;;;7.55;;
76761;SDS011;65705;51.032;13.790;2022-12-18T03:18:17;21.38;;;8.75;;
76761;SDS011;65705;51.032;13.790;2022-12-18T03:20:48;19.55;;;7.75;;
76761;SDS011;65705;51.032;13.790;2022-12-18T03:23:21;21.38;;;8.40;;
76761;SDS011;65705;51.032;13.790;2022-12-18T03:25:53;19.05;;;7.88;;
76761;SDS011;65705;51.032;13.790;2022-12-18T03:28:23;21.90;;;8.05;;
76761;SDS011;65705;51.032;13.790;2022-12-18T03:30:56;17.38;;;6.28;;
76761;SDS011;65705;51.032;13.790;2022-12-18T03:33:28;21.20;;;7.63;;
76761;SDS011;65705;51.032;13.790;2022-12-18T03:35:59;18.52;;;7.43;;
76761;SDS011;65705;51.032;13.790;2022-12-18T03:38:26;20.85;;;7.65;;
76761;SDS011;65705;51.032;13.790;2022-12-18T03:46:24;17.42;;;6.68;;
76761;SDS011;65705;51.032;13.790;2022-12-18T03:48:59;16.58;;;6.38;;
76761;SDS011;65705;51.032;13.790;2022-12-18T03:51:57;18.65;;;6.50;;
76761;SDS011;65705;51.032;13.790;2022-12-18T03:54:28;17.40;;;5.68;;
76761;SDS011;65705;51.032;13.790;2022-12-18T03:57:09;19.35;;;6.13;;
76761;SDS011;65705;51.032;13.790;2022-12-18T03:59:40;13.90;;;5.80;;
76761;SDS011;65705;51.032;13.790;2022-12-18T04:02:08;15.00;;;5.63;;
76761;SDS011;65705;51.032;13.790;2022-12-18T04:04:38;18.42;;;6.40;;
76761;SDS011;65705;51.032;13.790;2022-12-18T04:07:06;14.93;;;6.32;;
76761;SDS011;65705;51.032;13.790;2022-12-18T04:09:36;15.75;;;6.15;;
76761;SDS011;65705;51.032;13.790;2022-12-18T04:12:04;13.57;;;5.72;;
76761;SDS011;65705;51.032;13.790;2022-12-18T04:14:31;17.27;;;6.72;;
76761;SDS011;65705;51.032;13.790;2022-12-18T04:17:01;15.27;;;5.90;;
76761;SDS011;65705;51.032;13.790;2022-12-18T04:19:30;16.15;;;6.00;;
76761;SDS011;65705;51.032;13.790;2022-12-18T04:21:57;16.02;;;5.70;;
76761;SDS011;65705;51.032;13.790;2022-12-18T04:24:23;13.20;;;5.47;;
76761;SDS011;65705;51.032;13.790;2022-12-18T04:27:00;17.25;;;6.40;;
76761;SDS011;65705;51.032;13.790;2022-12-18T04:29:31;13.00;;;5.22;;
76761;SDS011;65705;51.032;13.790;2022-12-18T04:31:58;15.32;;;5.80;;
76761;SDS011;65705;51.032;13.790;2022-12-18T04:34:24;12.75;;;5.18;;
76761;SDS011;65705;51.032;13.790;2022-12-18T04:36:52;14.23;;;5.65;;
76761;SDS011;65705;51.032;13.790;2022-12-18T04:39:19;19.17;;;6.35;;
76761;SDS011;65705;51.032;13.790;2022-12-18T04:41:47;13.05;;;5.53;;
76761;SDS011;65705;51.032;13.790;2022-12-18T04:44:13;16.50;;;6.68;;
76761;SDS011;65705;51.032;13.790;2022-12-18T04:46:39;13.70;;;5.65;;
76761;SDS011;65705;51.032;13.790;2022-12-18T04:49:05;20.08;;;6.65;;
76761;SDS011;65705;51.032;13.790;2022-12-18T04:51:31;16.60;;;6.38;;
76761;SDS011;65705;51.032;13.790;2022-12-18T04:53:56;14.70;;;5.47;;
76761;SDS011;65705;51.032;13.790;2022-12-18T04:56:22;10.90;;;4.85;;
76761;SDS011;65705;51.032;13.790;2022-12-18T04:58:48;16.30;;;5.63;;
76761;SDS011;65705;51.032;13.790;2022-12-18T05:01:14;15.07;;;5.20;;
76761;SDS011;65705;51.032;13.790;2022-12-18T05:03:42;11.85;;;5.22;;
76761;SDS011;65705;51.032;13.790;2022-12-18T05:06:08;13.95;;;5.15;;
76761;SDS011;65705;51.032;13.790;2022-12-18T05:08:34;13.95;;;4.75;;
76761;SDS011;65705;51.032;13.790;2022-12-18T05:11:01;15.35;;;4.88;;
76761;SDS011;65705;51.032;13.790;2022-12-18T05:13:31;14.30;;;5.22;;
76761;SDS011;65705;51.032;13.790;2022-12-18T05:15:59;22.13;;;5.82;;
76761;SDS011;65705;51.032;13.790;2022-12-18T05:18:25;12.45;;;4.78;;
76761;SDS011;65705;51.032;13.790;2022-12-18T05:20:52;15.57;;;5.60;;
76761;SDS011;65705;51.032;13.790;2022-12-18T05:23:20;13.98;;;4.60;;
76761;SDS011;65705;51.032;13.790;2022-12-18T05:25:51;17.35;;;5.25;;
76761;SDS011;65705;51.032;13.790;2022-12-18T05:28:21;11.07;;;4.90;;
76761;SDS011;65705;51.032;13.790;2022-12-18T05:30:51;10.88;;;5.03;;
76761;SDS011;65705;51.032;13.790;2022-12-18T05:33:19;14.30;;;5.40;;
76761;SDS011;65705;51.032;13.790;2022-12-18T05:35:52;15.20;;;5.78;;
76761;SDS011;65705;51.032;13.790;2022-12-18T05:38:23;12.32;;;4.68;;
76761;SDS011;65705;51.032;13.790;2022-12-18T05:40:50;11.98;;;5.07;;
76761;SDS011;65705;51.032;13.790;2022-12-18T05:43:17;11.07;;;4.68;;
76761;SDS011;65705;51.032;13.790;2022-12-18T05:45:44;15.10;;;5.15;;
76761;SDS011;65705;51.032;13.790;2022-12-18T05:48:13;14.00;;;5.00;;
76761;SDS011;65705;51.032;13.790;2022-12-18T05:50:41;13.02;;;5.05;;
76761;SDS011;65705;51.032;13.790;2022-12-18T05:53:08;14.35;;;4.95;;
76761;SDS011;65705;51.032;13.790;2022-12-18T05:55:37;14.45;;;5.55;;
76761;SDS011;65705;51.032;13.790;2022-12-18T05:58:05;13.73;;;5.28;;
76761;SDS011;65705;51.032;13.790;2022-12-18T06:00:32;13.40;;;5.25;;
76761;SDS011;65705;51.032;13.790;2022-12-18T06:03:00;13.43;;;5.05;;
76761;SDS011;65705;51.032;13.790;2022-12-18T06:05:26;11.50;;;4.43;;
76761;SDS011;65705;51.032;13.790;2022-12-18T06:07:52;12.82;;;4.88;;
76761;SDS011;65705;51.032;13.790;2022-12-18T06:10:18;16.38;;;4.93;;
76761;SDS011;65705;51.032;13.790;2022-12-18T06:12:44;14.63;;;4.60;;
76761;SDS011;65705;51.032;13.790;2022-12-18T06:15:10;17.23;;;5.32;;
76761;SDS011;65705;51.032;13.790;2022-12-18T06:17:36;17.77;;;5.90;;
76761;SDS011;65705;51.032;13.790;2022-12-18T06:20:02;15.35;;;5.82;;
76761;SDS011;65705;51.032;13.790;2022-12-18T06:22:30;13.93;;;5.75;;
76761;SDS011;65705;51.032;13.790;2022-12-18T06:24:57;12.25;;;4.30;;
76761;SDS011;65705;51.032;13.790;2022-12-18T06:27:23;8.93;;;4.07;;
76761;SDS011;65705;51.032;13.790;2022-12-18T06:29:48;12.90;;;4.82;;
76761;SDS011;65705;51.032;13.790;2022-12-18T06:32:14;13.07;;;5.00;;
76761;SDS011;65705;51.032;13.790;2022-12-18T06:34:40;12.85;;;3.80;;
76761;SDS011;65705;51.032;13.790;2022-12-18T06:37:05;10.02;;;4.15;;
76761;SDS011;65705;51.032;13.790;2022-12-18T06:39:31;13.57;;;4.40;;
76761;SDS011;65705;51.032;13.790;2022-12-18T06:41:57;10.82;;;4.80;;
76761;SDS011;65705;51.032;13.790;2022-12-18T06:44:22;12.15;;;4.85;;
76761;SDS011;65705;51.032;13.790;2022-12-18T06:46:48;13.25;;;4.43;;
76761;SDS011;65705;51.032;13.790;2022-12-18T06:49:14;12.23;;;4.72;;
76761;SDS011;65705;51.032;13.790;2022-12-18T06:51:41;17.10;;;5.25;;
76761;SDS011;65705;51.032;13.790;2022-12-18T06:54:07;13.32;;;5.13;;
76761;SDS011;65705;51.032;13.790;2022-12-18T06:56:33;12.88;;;4.78;;
76761;SDS011;65705;51.032;13.790;2022-12-18T06:59:00;12.65;;;4.15;;
76761;SDS011;65705;51.032;13.790;2022-12-18T07:01:25;13.55;;;4.43;;
76761;SDS011;65705;51.032;13.790;2022-12-18T07:03:54;13.85;;;4.82;;
76761;SDS011;65705;51.032;13.790;2022-12-18T07:06:22;14.20;;;5.10;;
76761;SDS011;65705;51.032;13.790;2022-12-18T07:08:49;12.98;;;4.75;;
76761;SDS011;65705;51.032;13.790;2022-12-18T07:11:16;10.82;;;3.80;;
76761;SDS011;65705;51.032;13.790;2022-12-18T07:13:42;16.90;;;4.75;;
76761;SDS011;65705;51.032;13.790;2022-12-18T07:16:10;10.90;;;4.55;;
76761;SDS011;65705;51.032;13.790;2022-12-18T07:18:37;15.13;;;5.32;;
76761;SDS011;65705;51.032;13.790;2022-12-18T07:21:04;15.75;;;4.95;;
76761;SDS011;65705;51.032;13.790;2022-12-18T07:23:31;13.57;;;5.10;;
76761;SDS011;65705;51.032;13.790;2022-12-18T07:26:05;18.23;;;5.32;;
76761;SDS011;65705;51.032;13.790;2022-12-18T07:28:35;11.85;;;4.50;;
76761;SDS011;65705;51.032;13.790;2022-12-18T07:31:03;13.60;;;4.85;;
76761;SDS011;65705;51.032;13.790;2022-12-18T07:33:29;20.92;;;5.53;;
76761;SDS011;65705;51.032;13.790;2022-12-18T07:35:55;12.85;;;5.05;;
76761;SDS011;65705;51.032;13.790;2022-12-18T07:38:21;12.38;;;4.75;;
76761;SDS011;65705;51.032;13.790;2022-12-18T07:40:47;17.95;;;6.05;;
76761;SDS011;65705;51.032;13.790;2022-12-18T07:43:12;13.23;;;5.18;;
76761;SDS011;65705;51.032;13.790;2022-12-18T07:45:38;15.73;;;5.47;;
76761;SDS011;65705;51.032;13.790;2022-12-18T07:48:04;15.68;;;5.78;;
76761;SDS011;65705;51.032;13.790;2022-12-18T07:50:30;15.45;;;5.43;;
76761;SDS011;65705;51.032;13.790;2022-12-18T07:52:56;16.60;;;6.40;;
76761;SDS011;65705;51.032;13.790;2022-12-18T07:55:21;15.82;;;6.40;;
76761;SDS011;65705;51.032;13.790;2022-12-18T07:57:47;19.33;;;7.18;;
76761;SDS011;65705;51.032;13.790;2022-12-18T08:00:13;22.55;;;7.18;;
76761;SDS011;65705;51.032;13.790;2022-12-18T08:02:39;16.00;;;6.22;;
76761;SDS011;65705;51.032;13.790;2022-12-18T08:05:05;18.73;;;5.85;;
76761;SDS011;65705;51.032;13.790;2022-12-18T08:07:30;16.77;;;7.15;;
76761;SDS011;65705;51.032;13.790;2022-12-18T08:09:56;18.95;;;7.00;;
76761;SDS011;65705;51.032;13.790;2022-12-18T08:12:22;15.32;;;6.15;;
76761;SDS011;65705;51.032;13.790;2022-12-18T08:14:48;15.20;;;5.38;;
76761;SDS011;65705;51.032;13.790;2022-12-18T08:17:14;19.15;;;6.60;;
76761;SDS011;65705;51.032;13.790;2022-12-18T08:19:39;16.05;;;6.47;;
76761;SDS011;65705;51.032;13.790;2022-12-18T08:22:05;17.50;;;7.38;;
76761;SDS011;65705;51.032;13.790;2022-12-18T08:24:31;21.63;;;7.55;;
76761;SDS011;65705;51.032;13.790;2022-12-18T08:26:56;20.08;;;8.10;;
76761;SDS011;65705;51.032;13.790;2022-12-18T08:29:22;20.85;;;7.93;;
76761;SDS011;65705;51.032;13.790;2022-12-18T08:31:48;19.73;;;7.45;;
76761;SDS011;65705;51.032;13.790;2022-12-18T08:34:14;22.95;;;8.30;;
76761;SDS011;65705;51.032;13.790;2022-12-18T08:36:40;23.55;;;8.65;;
76761;SDS011;65705;51.032;13.790;2022-12-18T08:39:05;26.08;;;9.13;;
76761;SDS011;65705;51.032;13.790;2022-12-18T08:41:31;21.50;;;7.95;;
76761;SDS011;65705;51.032;13.790;2022-12-18T08:43:57;24.25;;;9.43;;
76761;SDS011;65705;51.032;13.790;2022-12-18T08:46:42;33.08;;;11.00;;
76761;SDS011;65705;51.032;13.790;2022-12-18T08:49:09;31.80;;;12.82;;
76761;SDS011;65705;51.032;13.790;2022-12-18T08:51:36;33.70;;;12.63;;
76761;SDS011;65705;51.032;13.790;2022-12-18T08:54:03;31.33;;;13.10;;
76761;SDS011;65705;51.032;13.790;2022-12-18T08:56:30;27.00;;;11.80;;
76761;SDS011;65705;51.032;13.790;2022-12-18T08:58:56;21.77;;;9.38;;
76761;SDS011;65705;51.032;13.790;2022-12-18T09:01:22;26.98;;;11.00;;
76761;SDS011;65705;51.032;13.790;2022-12-18T09:03:48;31.25;;;10.90;;
76761;SDS011;65705;51.032;13.790;2022-12-18T09:06:16;26.95;;;10.55;;
76761;SDS011;65705;51.032;13.790;2022-12-18T09:08:45;30.80;;;11.43;;
76761;SDS011;65705;51.032;13.790;2022-12-18T09:11:22;30.27;;;11.73;;
76761;SDS011;65705;51.032;13.790;2022-12-18T09:13:49;27.20;;;10.60;;
76761;SDS011;65705;51.032;13.790;2022-12-18T09:16:15;29.65;;;10.85;;
76761;SDS011;65705;51.032;13.790;2022-12-18T09:18:42;27.63;;;10.68;;
76761;SDS011;65705;51.032;13.790;2022-12-18T09:21:11;33.72;;;12.23;;
76761;SDS011;65705;51.032;13.790;2022-12-18T09:23:39;34.65;;;13.88;;
76761;SDS011;65705;51.032;13.790;2022-12-18T09:26:05;33.80;;;13.40;;
76761;SDS011;65705;51.032;13.790;2022-12-18T09:28:31;33.60;;;12.55;;
76761;SDS011;65705;51.032;13.790;2022-12-18T09:30:57;38.63;;;13.23;;
76761;SDS011;65705;51.032;13.790;2022-12-18T09:33:23;39.65;;;13.88;;
76761;SDS011;65705;51.032;13.790;2022-12-18T09:35:48;36.58;;;13.63;;
76761;SDS011;65705;51.032;13.790;2022-12-18T09:38:15;43.28;;;14.30;;
76761;SDS011;65705;51.032;13.790;2022-12-18T09:40:49;44.63;;;14.35;;
76761;SDS011;65705;51.032;13.790;2022-12-18T09:46:16;37.72;;;13.15;;
76761;SDS011;65705;51.032;13.790;2022-12-18T09:48:52;32.72;;;12.30;;
76761;SDS011;65705;51.032;13.790;2022-12-18T09:51:23;33.03;;;13.65;;
76761;SDS011;65705;51.032;13.790;2022-12-18T09:53:55;36.53;;;13.00;;
76761;SDS011;65705;51.032;13.790;2022-12-18T09:56:25;37.60;;;12.77;;
76761;SDS011;65705;51.032;13.790;2022-12-18T10:01:26;36.70;;;13.38;;
76761;SDS011;65705;51.032;13.790;2022-12-18T10:03:53;35.85;;;13.38;;
76761;SDS011;65705;51.032;13.790;2022-12-18T10:06:27;31.48;;;12.82;;
76761;SDS011;65705;51.032;13.790;2022-12-18T10:11:48;38.40;;;13.02;;
76761;SDS011;65705;51.032;13.790;2022-12-18T10:14:39;33.58;;;13.35;;
76761;SDS011;65705;51.032;13.790;2022-12-18T10:20:13;37.38;;;13.32;;
76761;SDS011;65705;51.032;13.790;2022-12-18T10:22:50;33.58;;;12.30;;
76761;SDS011;65705;51.032;13.790;2022-12-18T10:28:26;37.28;;;12.35;;
76761;SDS011;65705;51.032;13.790;2022-12-18T10:30:55;34.22;;;12.73;;
76761;SDS011;65705;51.032;13.790;2022-12-18T10:33:21;34.83;;;12.50;;
76761;SDS011;65705;51.032;13.790;2022-12-18T10:35:51;35.25;;;12.23;;
76761;SDS011;65705;51.032;13.790;2022-12-18T10:41:03;30.83;;;12.43;;
76761;SDS011;65705;51.032;13.790;2022-12-18T10:46:04;35.25;;;12.70;;
76761;SDS011;65705;51.032;13.790;2022-12-18T10:51:07;33.88;;;12.35;;
76761;SDS011;65705;51.032;13.790;2022-12-18T10:53:34;35.25;;;12.35;;
76761;SDS011;65705;51.032;13.790;2022-12-18T10:56:03;33.25;;;13.30;;
76761;SDS011;65705;51.032;13.790;2022-12-18T10:58:31;41.35;;;14.48;;
76761;SDS011;65705;51.032;13.790;2022-12-18T11:03:36;36.20;;;12.82;;
76761;SDS011;65705;51.032;13.790;2022-12-18T11:06:06;35.17;;;13.05;;
76761;SDS011;65705;51.032;13.790;2022-12-18T11:08:32;36.40;;;13.55;;
76761;SDS011;65705;51.032;13.790;2022-12-18T11:10:58;36.95;;;14.05;;
76761;SDS011;65705;51.032;13.790;2022-12-18T11:13:25;34.30;;;11.70;;
76761;SDS011;65705;51.032;13.790;2022-12-18T11:15:53;36.53;;;11.30;;
76761;SDS011;65705;51.032;13.790;2022-12-18T11:18:25;38.08;;;13.68;;
76761;SDS011;65705;51.032;13.790;2022-12-18T11:20:54;34.67;;;12.45;;
76761;SDS011;65705;51.032;13.790;2022-12-18T11:23:24;37.25;;;13.23;;
76761;SDS011;65705;51.032;13.790;2022-12-18T11:25:51;35.05;;;12.70;;
76761;SDS011;65705;51.032;13.790;2022-12-18T11:28:27;34.35;;;12.50;;
76761;SDS011;65705;51.032;13.790;2022-12-18T11:31:15;30.55;;;11.07;;
76761;SDS011;65705;51.032;13.790;2022-12-18T11:33:46;34.20;;;11.35;;
76761;SDS011;65705;51.032;13.790;2022-12-18T11:36:25;36.53;;;11.63;;
76761;SDS011;65705;51.032;13.790;2022-12-18T11:38:57;34.50;;;12.13;;
76761;SDS011;65705;51.032;13.790;2022-12-18T11:41:32;34.40;;;12.25;;
76761;SDS011;65705;51.032;13.790;2022-12-18T11:44:28;32.13;;;12.43;;
76761;SDS011;65705;51.032;13.790;2022-12-18T11:47:02;34.90;;;12.88;;
76761;SDS011;65705;51.032;13.790;2022-12-18T11:49:34;35.42;;;12.43;;
76761;SDS011;65705;51.032;13.790;2022-12-18T11:52:21;29.98;;;11.57;;
76761;SDS011;65705;51.032;13.790;2022-12-18T11:54:51;31.25;;;11.35;;
76761;SDS011;65705;51.032;13.790;2022-12-18T12:08:10;30.33;;;10.85;;
76761;SDS011;65705;51.032;13.790;2022-12-18T12:16:16;31.10;;;11.20;;
76761;SDS011;65705;51.032;13.790;2022-12-18T12:18:47;32.22;;;10.63;;
76761;SDS011;65705;51.032;13.790;2022-12-18T12:27:01;28.35;;;10.63;;
76761;SDS011;65705;51.032;13.790;2022-12-18T12:30:00;30.27;;;11.70;;
76761;SDS011;65705;51.032;13.790;2022-12-18T12:38:08;28.98;;;11.45;;
76761;SDS011;65705;51.032;13.790;2022-12-18T12:40:49;33.83;;;12.00;;
76761;SDS011;65705;51.032;13.790;2022-12-18T12:46:08;35.65;;;13.05;;
76761;SDS011;65705;51.032;13.790;2022-12-18T12:48:41;28.33;;;10.63;;
76761;SDS011;65705;51.032;13.790;2022-12-18T12:51:21;31.95;;;10.82;;
76761;SDS011;65705;51.032;13.790;2022-12-18T12:53:50;27.73;;;11.13;;
76761;SDS011;65705;51.032;13.790;2022-12-18T12:56:18;32.15;;;12.45;;
76761;SDS011;65705;51.032;13.790;2022-12-18T13:01:25;32.83;;;11.70;;
76761;SDS011;65705;51.032;13.790;2022-12-18T13:07:22;27.67;;;10.82;;
76761;SDS011;65705;51.032;13.790;2022-12-18T13:12:55;31.55;;;11.38;;
76761;SDS011;65705;51.032;13.790;2022-12-18T13:15:21;30.05;;;11.23;;
76761;SDS011;65705;51.032;13.790;2022-12-18T13:17:47;30.23;;;11.27;;
76761;SDS011;65705;51.032;13.790;2022-12-18T13:20:14;35.30;;;13.35;;
76761;SDS011;65705;51.032;13.790;2022-12-18T13:22:45;33.13;;;11.23;;
76761;SDS011;65705;51.032;13.790;2022-12-18T13:43:28;32.65;;;12.05;;
76761;SDS011;65705;51.032;13.790;2022-12-18T13:46:05;27.33;;;10.93;;
76761;SDS011;65705;51.032;13.790;2022-12-18T13:48:48;28.85;;;11.52;;
76761;SDS011;65705;51.032;13.790;2022-12-18T13:51:56;24.83;;;9.77;;
76761;SDS011;65705;51.032;13.790;2022-12-18T13:54:35;28.20;;;10.60;;
76761;SDS011;65705;51.032;13.790;2022-12-18T13:57:04;27.42;;;10.98;;
76761;SDS011;65705;51.032;13.790;2022-12-18T13:59:38;25.55;;;9.52;;
76761;SDS011;65705;51.032;13.790;2022-12-18T14:02:14;28.42;;;10.15;;
76761;SDS011;65705;51.032;13.790;2022-12-18T14:04:46;30.27;;;10.48;;
76761;SDS011;65705;51.032;13.790;2022-12-18T14:07:14;24.98;;;9.65;;
76761;SDS011;65705;51.032;13.790;2022-12-18T14:09:46;25.83;;;9.45;;
76761;SDS011;65705;51.032;13.790;2022-12-18T14:12:17;24.98;;;9.00;;
76761;SDS011;65705;51.032;13.790;2022-12-18T14:18:03;23.13;;;8.73;;
76761;SDS011;65705;51.032;13.790;2022-12-18T14:20:51;25.08;;;8.90;;
76761;SDS011;65705;51.032;13.790;2022-12-18T14:23:39;21.80;;;8.38;;
76761;SDS011;65705;51.032;13.790;2022-12-18T14:28:49;28.00;;;9.82;;
76761;SDS011;65705;51.032;13.790;2022-12-18T14:31:22;23.10;;;8.90;;
76761;SDS011;65705;51.032;13.790;2022-12-18T14:33:50;29.27;;;10.20;;
76761;SDS011;65705;51.032;13.790;2022-12-18T14:36:27;45.70;;;14.95;;
76761;SDS011;65705;51.032;13.790;2022-12-18T14:38:55;25.63;;;9.10;;
76761;SDS011;65705;51.032;13.790;2022-12-18T14:41:24;28.67;;;10.90;;
76761;SDS011;65705;51.032;13.790;2022-12-18T14:43:52;27.02;;;10.63;;
76761;SDS011;65705;51.032;13.790;2022-12-18T14:46:26;26.23;;;9.88;;
76761;SDS011;65705;51.032;13.790;2022-12-18T14:48:58;25.38;;;9.07;;
76761;SDS011;65705;51.032;13.790;2022-12-18T14:51:30;25.10;;;9.07;;
76761;SDS011;65705;51.032;13.790;2022-12-18T14:54:05;27.58;;;9.13;;
76761;SDS011;65705;51.032;13.790;2022-12-18T14:56:43;26.50;;;10.20;;
76761;SDS011;65705;51.032;13.790;2022-12-18T15:04:38;26.33;;;10.00;;
76761;SDS011;65705;51.032;13.790;2022-12-18T15:07:08;29.35;;;10.07;;
76761;SDS011;65705;51.032;13.790;2022-12-18T15:09:38;28.08;;;9.57;;
76761;SDS011;65705;51.032;13.790;2022-12-18T15:12:18;29.77;;;10.48;;
76761;SDS011;65705;51.032;13.790;2022-12-18T15:14:51;25.83;;;8.43;;
76761;SDS011;65705;51.032;13.790;2022-12-18T15:17:17;32.67;;;10.15;;
76761;SDS011;65705;51.032;13.790;2022-12-18T15:19:45;20.80;;;9.13;;
76761;SDS011;65705;51.032;13.790;2022-12-18T15:22:17;24.98;;;9.43;;
76761;SDS011;65705;51.032;13.790;2022-12-18T15:24:46;28.42;;;10.02;;
76761;SDS011;65705;51.032;13.790;2022-12-18T15:32:30;26.40;;;9.30;;
76761;SDS011;65705;51.032;13.790;2022-12-18T15:35:18;26.23;;;10.55;;
76761;SDS011;65705;51.032;13.790;2022-12-18T15:37:42;27.55;;;10.68;;
76761;SDS011;65705;51.032;13.790;2022-12-18T15:40:18;32.42;;;10.45;;
76761;SDS011;65705;51.032;13.790;2022-12-18T15:45:30;25.38;;;9.05;;
76761;SDS011;65705;51.032;13.790;2022-12-18T15:47:55;24.73;;;9.05;;
76761;SDS011;65705;51.032;13.790;2022-12-18T15:50:21;29.75;;;9.48;;
76761;SDS011;65705;51.032;13.790;2022-12-18T15:52:48;29.63;;;10.02;;
76761;SDS011;65705;51.032;13.790;2022-12-18T15:55:20;24.10;;;9.27;;
76761;SDS011;65705;51.032;13.790;2022-12-18T15:58:07;23.00;;;10.07;;
76761;SDS011;65705;51.032;13.790;2022-12-18T16:00:34;27.50;;;10.45;;
76761;SDS011;65705;51.032;13.790;2022-12-18T16:03:02;30.52;;;10.48;;
76761;SDS011;65705;51.032;13.790;2022-12-18T16:05:29;28.90;;;9.60;;
76761;SDS011;65705;51.032;13.790;2022-12-18T16:07:55;30.33;;;8.85;;
76761;SDS011;65705;51.032;13.790;2022-12-18T16:10:21;28.15;;;10.05;;
76761;SDS011;65705;51.032;13.790;2022-12-18T16:12:46;27.35;;;10.75;;
76761;SDS011;65705;51.032;13.790;2022-12-18T16:15:13;29.65;;;10.30;;
76761;SDS011;65705;51.032;13.790;2022-12-18T16:17:41;26.98;;;10.73;;
76761;SDS011;65705;51.032;13.790;2022-12-18T16:20:12;31.85;;;11.40;;
76761;SDS011;65705;51.032;13.790;2022-12-18T16:22:43;24.95;;;10.38;;
76761;SDS011;65705;51.032;13.790;2022-12-18T16:25:23;32.53;;;9.82;;
76761;SDS011;65705;51.032;13.790;2022-12-18T16:27:50;28.63;;;9.80;;
76761;SDS011;65705;51.032;13.790;2022-12-18T16:30:18;30.77;;;10.60;;